Observation data for Seminole on 11/19/2019      Previous  Date  Next       Current Mesonet Observations  Soil Data  Daily Summary Page  Observations in Plain Language
KSM1 190600Z 04006KT 07/00 A2998 RMK A01 T00720000  RH  061%=      5-min Rain = 0
KSM1 190605Z 04006KT 07/00 A2998 RMK A01 T007200-0  RH  061%=      5-min Rain = 0
KSM1 190610Z 05006KT 08/M00 A2998 RMK A01 T00751001  RH  059%=      5-min Rain = 0
KSM1 190615Z 04005KT 08/M00 A2998 RMK A01 T00791001  RH  057%=      5-min Rain = 0
KSM1 190620Z 04004KT 08/00 A2998 RMK A01 T008200-0  RH  057%=      5-min Rain = 0
KSM1 190625Z 04005KT 08/M00 A2998 RMK A01 T00831002  RH  056%=      5-min Rain = 0
KSM1 190630Z 03003KT 09/M00 A2998 RMK A01 T00871004  RH  054%=      5-min Rain = 0
KSM1 190635Z 03002KT 09/M00 A2998 RMK A01 T00921003  RH  052%=      5-min Rain = 0
KSM1 190640Z 03002KT 09/M00 A2998 RMK A01 T00921001  RH  053%=      5-min Rain = 0
KSM1 190645Z 03000KT 09/00 A2998 RMK A01 T00860003  RH  057%=      5-min Rain = 0
KSM1 190650Z 03000KT 08/01 A2999 RMK A01 T00790007  RH  061%=      5-min Rain = 0
KSM1 190655Z 26002KT 08/01 A2999 RMK A01 T00760005  RH  062%=      5-min Rain = 0
KSM1 190700Z 25004KT 08/00 A2998 RMK A01 T00750002  RH  061%=      5-min Rain = 0
KSM1 190705Z 25004KT 07/00 A2999 RMK A01 T00740002  RH  061%=      5-min Rain = 0
KSM1 190710Z 25004KT 07/00 A2999 RMK A01 T00740001  RH  060%=      5-min Rain = 0
KSM1 190715Z 27004KT 08/00 A2999 RMK A01 T00750002  RH  061%=      5-min Rain = 0
KSM1 190720Z 29005KT 07/00 A2999 RMK A01 T00670003  RH  064%=      5-min Rain = 0
KSM1 190725Z 29006KT 06/00 A2999 RMK A01 T00570003  RH  069%=      5-min Rain = 0
KSM1 190730Z 29006KT 06/00 A2999 RMK A01 T00550004  RH  071%=      5-min Rain = 0
KSM1 190735Z 30006KT 06/00 A2999 RMK A01 T00550003  RH  070%=      5-min Rain = 0
KSM1 190740Z 31006KT 05/00 A2999 RMK A01 T00540003  RH  070%=      5-min Rain = 0
KSM1 190745Z 31006KT 05/00 A2999 RMK A01 T00540003  RH  070%=      5-min Rain = 0
KSM1 190750Z 31007KT 05/00 A2999 RMK A01 T00540003  RH  071%=      5-min Rain = 0
KSM1 190755Z 32006KT 05/00 A2998 RMK A01 T00530002  RH  070%=      5-min Rain = 0
KSM1 190800Z 32007KT 05/00 A2998 RMK A01 T00530002  RH  070%=      5-min Rain = 0
KSM1 190805Z 32006KT 06/00 A2998 RMK A01 T00550001  RH  069%=      5-min Rain = 0
KSM1 190810Z 33004KT 06/00 A2998 RMK A01 T00550002  RH  070%=      5-min Rain = 0
KSM1 190815Z 33006KT 06/00 A2998 RMK A01 T00550003  RH  070%=      5-min Rain = 0
KSM1 190820Z 33006KT 06/00 A2999 RMK A01 T00570003  RH  069%=      5-min Rain = 0
KSM1 190825Z 33007KT 06/00 A2999 RMK A01 T00580003  RH  068%=      5-min Rain = 0
KSM1 190830Z 33007KT 06/00 A2999 RMK A01 T00560003  RH  069%=      5-min Rain = 0
KSM1 190835Z 33007KT 06/00 A2999 RMK A01 T00550003  RH  070%=      5-min Rain = 0
KSM1 190840Z 33005KT 05/00 A2999 RMK A01 T00530002  RH  071%=      5-min Rain = 0
KSM1 190845Z 33006KT 05/00 A2998 RMK A01 T00500002  RH  072%=      5-min Rain = 0
KSM1 190850Z 33005KT 05/00 A2998 RMK A01 T00500002  RH  072%=      5-min Rain = 0
KSM1 190855Z 34004KT 05/00 A2998 RMK A01 T00510003  RH  072%=      5-min Rain = 0
KSM1 190900Z 33003KT 05/00 A2998 RMK A01 T00530003  RH  071%=      5-min Rain = 0
KSM1 190905Z 33004KT 05/01 A2998 RMK A01 T00520005  RH  072%=      5-min Rain = 0
KSM1 190910Z 33005KT 05/00 A2998 RMK A01 T00500004  RH  073%=      5-min Rain = 0
KSM1 190915Z 33005KT 05/00 A2998 RMK A01 T00480004  RH  074%=      5-min Rain = 0
KSM1 190920Z 33004KT 05/00 A2998 RMK A01 T00480004  RH  074%=      5-min Rain = 0
KSM1 190925Z 34004KT 05/00 A2998 RMK A01 T00490004  RH  074%=      5-min Rain = 0
KSM1 190930Z 34005KT 05/00 A2998 RMK A01 T00480003  RH  073%=      5-min Rain = 0
KSM1 190935Z 34005KT 05/00 A2998 RMK A01 T00470002  RH  073%=      5-min Rain = 0
KSM1 190940Z 34006KT 05/00 A2998 RMK A01 T00470002  RH  074%=      5-min Rain = 0
KSM1 190945Z 33005KT 05/00 A2998 RMK A01 T00480003  RH  074%=      5-min Rain = 0
KSM1 190950Z 33005KT 05/00 A2998 RMK A01 T00460003  RH  074%=      5-min Rain = 0
KSM1 190955Z 33006KT 04/00 A2998 RMK A01 T00440004  RH  076%=      5-min Rain = 0
KSM1 191000Z 32006KT 04/00 A2998 RMK A01 T00440003  RH  076%=      5-min Rain = 0
KSM1 191005Z 32006KT 04/00 A2997 RMK A01 T00420002  RH  076%=      5-min Rain = 0
KSM1 191010Z 32005KT 04/00 A2997 RMK A01 T00410002  RH  077%=      5-min Rain = 0
KSM1 191015Z 32006KT 04/00 A2997 RMK A01 T00410003  RH  077%=      5-min Rain = 0
KSM1 191020Z 32006KT 04/00 A2997 RMK A01 T00440003  RH  076%=      5-min Rain = 0
KSM1 191025Z 32005KT 05/00 A2997 RMK A01 T00450003  RH  075%=      5-min Rain = 0
KSM1 191030Z 32006KT 05/00 A2997 RMK A01 T00450003  RH  075%=      5-min Rain = 0
KSM1 191035Z 32007KT 04/00 A2997 RMK A01 T00430002  RH  075%=      5-min Rain = 0
KSM1 191040Z 32006KT 04/00 A2997 RMK A01 T00430002  RH  076%=      5-min Rain = 0
KSM1 191045Z 32006KT 04/00 A2997 RMK A01 T00440002  RH  075%=      5-min Rain = 0
KSM1 191050Z 32005KT 04/00 A2997 RMK A01 T00440002  RH  075%=      5-min Rain = 0
KSM1 191055Z 32006KT 04/00 A2997 RMK A01 T00440002  RH  075%=      5-min Rain = 0
KSM1 191100Z 32007KT 05/00 A2997 RMK A01 T00450002  RH  075%=      5-min Rain = 0
KSM1 191105Z 33006KT 04/00 A2997 RMK A01 T00440002  RH  075%=      5-min Rain = 0
KSM1 191110Z 33006KT 04/00 A2997 RMK A01 T00440002  RH  075%=      5-min Rain = 0
KSM1 191115Z 33006KT 05/00 A2996 RMK A01 T00450003  RH  075%=      5-min Rain = 0
KSM1 191120Z 33006KT 05/00 A2996 RMK A01 T00460003  RH  074%=      5-min Rain = 0
KSM1 191125Z 32005KT 05/00 A2997 RMK A01 T00460003  RH  075%=      5-min Rain = 0
KSM1 191130Z 32007KT 05/00 A2996 RMK A01 T00460003  RH  075%=      5-min Rain = 0
KSM1 191135Z 32006KT 04/00 A2996 RMK A01 T00440003  RH  075%=      5-min Rain = 0
KSM1 191140Z 32006KT 04/00 A2996 RMK A01 T00430002  RH  076%=      5-min Rain = 0
KSM1 191145Z 32006KT 04/00 A2996 RMK A01 T00440003  RH  075%=      5-min Rain = 0
KSM1 191150Z 32006KT 04/00 A2996 RMK A01 T00440003  RH  075%=      5-min Rain = 0
KSM1 191155Z 32006KT 04/00 A2996 RMK A01 T00420002  RH  076%=      5-min Rain = 0
KSM1 191200Z 33006KT 04/00 A2996 RMK A01 T00410002  RH  076%=      5-min Rain = 0
KSM1 191205Z 34005KT 04/00 A2996 RMK A01 T00400001  RH  077%=      5-min Rain = 0
KSM1 191210Z 34006KT 04/00 A2996 RMK A01 T00410002  RH  077%=      5-min Rain = 0
KSM1 191215Z 34005KT 04/00 A2996 RMK A01 T00420002  RH  076%=      5-min Rain = 0
KSM1 191220Z 34005KT 04/00 A2996 RMK A01 T00420002  RH  076%=      5-min Rain = 0
KSM1 191225Z 34006KT 04/00 A2996 RMK A01 T00420002  RH  076%=      5-min Rain = 0
KSM1 191230Z 34005KT 04/00 A2996 RMK A01 T00420002  RH  076%=      5-min Rain = 0
KSM1 191235Z 34005KT 04/00 A2996 RMK A01 T00420001  RH  076%=      5-min Rain = 0
KSM1 191240Z 34005KT 04/00 A2996 RMK A01 T00400001  RH  077%=      5-min Rain = 0
KSM1 191245Z 34005KT 04/00 A2996 RMK A01 T00400002  RH  077%=      5-min Rain = 0
KSM1 191250Z 33005KT 04/00 A2996 RMK A01 T00420002  RH  076%=      5-min Rain = 0
KSM1 191255Z 33005KT 04/00 A2996 RMK A01 T00410001  RH  076%=      5-min Rain = 0
KSM1 191300Z 33005KT 04/00 A2996 RMK A01 T00390001  RH  077%=      5-min Rain = 0
KSM1 191305Z 33005KT 04/00 A2996 RMK A01 T00370000  RH  078%=      5-min Rain = 0
KSM1 191310Z 32005KT 04/00 A2996 RMK A01 T00360001  RH  079%=      5-min Rain = 0
KSM1 191315Z 31005KT 04/00 A2996 RMK A01 T00360001  RH  079%=      5-min Rain = 0
KSM1 191320Z 31005KT 04/00 A2996 RMK A01 T00360001  RH  079%=      5-min Rain = 0
KSM1 191325Z 31005KT 04/00 A2996 RMK A01 T00350000  RH  079%=      5-min Rain = 0
KSM1 191330Z 31005KT 04/00 A2997 RMK A01 T00350000  RH  079%=      5-min Rain = 0
KSM1 191335Z 31005KT 04/00 A2997 RMK A01 T00360001  RH  079%=      5-min Rain = 0
KSM1 191340Z 31005KT 04/00 A2997 RMK A01 T00360000  RH  078%=      5-min Rain = 0
KSM1 191345Z 31005KT 04/00 A2997 RMK A01 T003700-0  RH  078%=      5-min Rain = 0
KSM1 191350Z 29004KT 04/00 A2997 RMK A01 T003700-0  RH  078%=      5-min Rain = 0
KSM1 191355Z 27003KT 04/00 A2997 RMK A01 T00400001  RH  076%=      5-min Rain = 0
KSM1 191400Z 27003KT 04/00 A2997 RMK A01 T00400000  RH  076%=      5-min Rain = 0
KSM1 191405Z 26002KT 04/00 A2998 RMK A01 T00440003  RH  076%=      5-min Rain = 0
KSM1 191410Z 26001KT 05/01 A2998 RMK A01 T00490005  RH  074%=      5-min Rain = 0
KSM1 191415Z 20001KT 05/01 A2998 RMK A01 T00530005  RH  072%=      5-min Rain = 0
KSM1 191420Z 18001KT 06/01 A2998 RMK A01 T00570008  RH  071%=      5-min Rain = 0
KSM1 191425Z 16001KT 07/01 A2998 RMK A01 T00670012  RH  069%=      5-min Rain = 0
KSM1 191430Z 16001KT 08/01 A2998 RMK A01 T00770011  RH  064%=      5-min Rain = 0
KSM1 191435Z 15002KT 08/01 A2999 RMK A01 T00830010  RH  061%=      5-min Rain = 0
KSM1 191440Z 14002KT 09/01 A2998 RMK A01 T00860012  RH  061%=      5-min Rain = 0
KSM1 191445Z 13003KT 09/01 A2999 RMK A01 T00870014  RH  061%=      5-min Rain = 0
KSM1 191450Z 15003KT 09/02 A2998 RMK A01 T00890017  RH  062%=      5-min Rain = 0
KSM1 191455Z 14003KT 09/02 A2998 RMK A01 T00920018  RH  061%=      5-min Rain = 0
KSM1 191500Z 15003KT 10/01 A2998 RMK A01 T00970013  RH  057%=      5-min Rain = 0
KSM1 191505Z 16004KT 10/01 A2998 RMK A01 T00990011  RH  055%=      5-min Rain = 0
KSM1 191510Z 17004KT 10/01 A2998 RMK A01 T01020013  RH  055%=      5-min Rain = 0
KSM1 191515Z 17005KT 11/01 A2998 RMK A01 T01050013  RH  054%=      5-min Rain = 0
KSM1 191520Z 17005KT 11/01 A2998 RMK A01 T01090012  RH  052%=      5-min Rain = 0
KSM1 191525Z 17005KT 11/01 A2998 RMK A01 T01120011  RH  050%=      5-min Rain = 0
KSM1 191530Z 17005KT 12/01 A2998 RMK A01 T01160013  RH  050%=      5-min Rain = 0
KSM1 191535Z 17005KT 12/01 A2998 RMK A01 T01220013  RH  048%=      5-min Rain = 0
KSM1 191540Z 18005KT 13/01 A2998 RMK A01 T01250010  RH  046%=      5-min Rain = 0
KSM1 191545Z 19006KT 13/01 A2998 RMK A01 T01310010  RH  044%=      5-min Rain = 0
KSM1 191550Z 18006KT 14/01 A2998 RMK A01 T01360011  RH  043%=      5-min Rain = 0
KSM1 191555Z 19006KT 14/01 A2998 RMK A01 T01410009  RH  041%=      5-min Rain = 0
KSM1 191600Z 18005KT 15/01 A2998 RMK A01 T01450010  RH  040%=      5-min Rain = 0
KSM1 191605Z 18005KT 15/01 A2998 RMK A01 T01510012  RH  039%=      5-min Rain = 0
KSM1 191610Z 19006KT 15/01 A2998 RMK A01 T01540009  RH  038%=      5-min Rain = 0
KSM1 191615Z 18006KT 16/01 A2998 RMK A01 T01580010  RH  037%=      5-min Rain = 0
KSM1 191620Z 18007KT 16/01 A2998 RMK A01 T01610009  RH  036%=      5-min Rain = 0
KSM1 191625Z 18006KT 16/01 A2998 RMK A01 T01640012  RH  036%=      5-min Rain = 0
KSM1 191630Z 19007KT 17/01 A2998 RMK A01 T01720007  RH  033%=      5-min Rain = 0
KSM1 191635Z 19008KT 18/00 A2998 RMK A01 T01760003  RH  031%=      5-min Rain = 0
KSM1 191640Z 18007KT 18/00 A2998 RMK A01 T01810004  RH  031%=      5-min Rain = 0
KSM1 191645Z 19007KT 19/01 A2998 RMK A01 T01850005  RH  030%=      5-min Rain = 0
KSM1 191650Z 19008KT 19/00 A2997 RMK A01 T01910003  RH  029%=      5-min Rain = 0
KSM1 191655Z 19008KT 19/00 A2997 RMK A01 T01930003  RH  028%=      5-min Rain = 0
KSM1 191700Z 19009KT 20/00 A2997 RMK A01 T01990000  RH  027%=      5-min Rain = 0
KSM1 191705Z 19010KT 20/M00 A2997 RMK A01 T02041001  RH  026%=      5-min Rain = 0
KSM1 191710Z 19010KT 21/M00 A2997 RMK A01 T02061002  RH  025%=      5-min Rain = 0
KSM1 191715Z 19011KT 21/M00 A2996 RMK A01 T02081003  RH  025%=      5-min Rain = 0
KSM1 191720Z 19009KT 21/M00 A2996 RMK A01 T02101002  RH  025%=      5-min Rain = 0
KSM1 191725Z 18010KT 22/M00 A2996 RMK A01 T02171003  RH  023%=      5-min Rain = 0
KSM1 191730Z 19010G16KT 22/M01 A2996 RMK A01 T02201005  RH  023%=      5-min Rain = 0
KSM1 191735Z 20013KT 22/M01 A2995 RMK A01 T02181010  RH  022%=      5-min Rain = 0
KSM1 191740Z 19012KT 22/M01 A2995 RMK A01 T02211011  RH  021%=      5-min Rain = 0
KSM1 191745Z 20011KT 22/M02 A2995 RMK A01 T02241016  RH  020%=      5-min Rain = 0
KSM1 191750Z 19012KT 23/M02 A2995 RMK A01 T02261021  RH  019%=      5-min Rain = 0
KSM1 191755Z 20012KT 23/M02 A2994 RMK A01 T02291020  RH  019%=      5-min Rain = 0
KSM1 191800Z 19011KT 23/M02 A2994 RMK A01 T02331021  RH  018%=      5-min Rain = 0
KSM1 191805Z 20012KT 23/M03 A2994 RMK A01 T02331029  RH  017%=      5-min Rain = 0
KSM1 191810Z 20012KT 23/M03 A2994 RMK A01 T02331031  RH  017%=      5-min Rain = 0
KSM1 191815Z 20013G20KT 24/M03 A2993 RMK A01 T02351032  RH  017%=      5-min Rain = 0
KSM1 191820Z 20013G18KT 24/M03 A2993 RMK A01 T02361034  RH  016%=      5-min Rain = 0
KSM1 191825Z 19014KT 24/M03 A2993 RMK A01 T02361033  RH  017%=      5-min Rain = 0
KSM1 191830Z 21013KT 24/M03 A2993 RMK A01 T02381034  RH  016%=      5-min Rain = 0
KSM1 191835Z 20014KT 24/M04 A2992 RMK A01 T02381035  RH  016%=      5-min Rain = 0
KSM1 191840Z 19012G17KT 24/M03 A2992 RMK A01 T02411033  RH  016%=      5-min Rain = 0
KSM1 191845Z 20010KT 25/M03 A2992 RMK A01 T02451031  RH  016%=      5-min Rain = 0
KSM1 191850Z 21012G17KT 25/M03 A2991 RMK A01 T02451033  RH  016%=      5-min Rain = 0
KSM1 191855Z 21014G19KT 24/M04 A2991 RMK A01 T02431036  RH  015%=      5-min Rain = 0
KSM1 191900Z 21013G18KT 24/M04 A2991 RMK A01 T02431037  RH  015%=      5-min Rain = 0
KSM1 191905Z 21013KT 24/M04 A299 RMK A01 T02441035  RH  016%=      5-min Rain = 0
KSM1 191910Z 20012KT 25/M03 A299 RMK A01 T02471031  RH  016%=      5-min Rain = 0
KSM1 191915Z 22012G17KT 25/M03 A299 RMK A01 T02521034  RH  015%=      5-min Rain = 0
KSM1 191920Z 22012KT 25/M04 A2989 RMK A01 T02491035  RH  015%=      5-min Rain = 0
KSM1 191925Z 21013G18KT 25/M04 A2989 RMK A01 T02501038  RH  015%=      5-min Rain = 0
KSM1 191930Z 21015KT 25/M04 A2989 RMK A01 T02481038  RH  015%=      5-min Rain = 0
KSM1 191935Z 21013KT 25/M04 A2988 RMK A01 T02481039  RH  015%=      5-min Rain = 0
KSM1 191940Z 20014G19KT 25/M04 A2988 RMK A01 T02481038  RH  015%=      5-min Rain = 0
KSM1 191945Z 21013KT 25/M04 A2988 RMK A01 T02491038  RH  015%=      5-min Rain = 0
KSM1 191950Z 21011G17KT 25/M04 A2987 RMK A01 T02511036  RH  015%=      5-min Rain = 0
KSM1 191955Z 21012G17KT 25/M04 A2987 RMK A01 T02491035  RH  015%=      5-min Rain = 0
KSM1 192000Z 19013G18KT 25/M03 A2987 RMK A01 T02481033  RH  015%=      5-min Rain = 0
KSM1 192005Z 19013KT 25/M03 A2987 RMK A01 T02471034  RH  015%=      5-min Rain = 0
KSM1 192010Z 21012KT 24/M03 A2987 RMK A01 T02421034  RH  016%=      5-min Rain = 0
KSM1 192015Z 19014KT 24/M04 A2987 RMK A01 T02421036  RH  016%=      5-min Rain = 0
KSM1 192020Z 20012KT 24/M04 A2986 RMK A01 T02431036  RH  016%=      5-min Rain = 0
KSM1 192025Z 19013KT 24/M04 A2986 RMK A01 T02441038  RH  015%=      5-min Rain = 0
KSM1 192030Z 20011KT 24/M04 A2986 RMK A01 T02391036  RH  016%=      5-min Rain = 0
KSM1 192035Z 20012KT 24/M04 A2986 RMK A01 T02391036  RH  016%=      5-min Rain = 0
KSM1 192040Z 19013G18KT 24/M04 A2986 RMK A01 T02401038  RH  016%=      5-min Rain = 0
KSM1 192045Z 20013KT 25/M04 A2985 RMK A01 T02471038  RH  015%=      5-min Rain = 0
KSM1 192050Z 19012G18KT 25/M04 A2985 RMK A01 T02491037  RH  015%=      5-min Rain = 0
KSM1 192055Z 20014G19KT 25/M04 A2985 RMK A01 T02461040  RH  015%=      5-min Rain = 0
KSM1 192100Z 19013G18KT 25/M04 A2985 RMK A01 T02471039  RH  015%=      5-min Rain = 0
KSM1 192105Z 19013KT 25/M04 A2985 RMK A01 T02461040  RH  015%=      5-min Rain = 0
KSM1 192110Z 20013KT 25/M04 A2985 RMK A01 T02471039  RH  015%=      5-min Rain = 0
KSM1 192115Z 19013G18KT 25/M04 A2984 RMK A01 T02461040  RH  015%=      5-min Rain = 0
KSM1 192120Z 20013KT 25/M04 A2984 RMK A01 T02451040  RH  015%=      5-min Rain = 0
KSM1 192125Z 20014G20KT 24/M04 A2984 RMK A01 T02441042  RH  015%=      5-min Rain = 0
KSM1 192130Z 20013KT 24/M04 A2984 RMK A01 T02401040  RH  015%=      5-min Rain = 0
KSM1 192135Z 20012KT 24/M04 A2984 RMK A01 T02381039  RH  016%=      5-min Rain = 0
KSM1 192140Z 19011KT 24/M04 A2984 RMK A01 T02381036  RH  016%=      5-min Rain = 0
KSM1 192145Z 19012KT 24/M04 A2984 RMK A01 T02361037  RH  016%=      5-min Rain = 0
KSM1 192150Z 20011KT 24/M04 A2984 RMK A01 T02351036  RH  016%=      5-min Rain = 0
KSM1 192155Z 20010G15KT 24/M03 A2984 RMK A01 T02361034  RH  016%=      5-min Rain = 0
KSM1 192200Z 19011KT 24/M04 A2983 RMK A01 T02421035  RH  016%=      5-min Rain = 0
KSM1 192205Z 19012G17KT 25/M04 A2983 RMK A01 T02471037  RH  015%=      5-min Rain = 0
KSM1 192210Z 19013KT 25/M04 A2983 RMK A01 T02461039  RH  015%=      5-min Rain = 0
KSM1 192215Z 20011KT 25/M04 A2983 RMK A01 T02461038  RH  015%=      5-min Rain = 0
KSM1 192220Z 18012KT 25/M04 A2983 RMK A01 T02461040  RH  015%=      5-min Rain = 0
KSM1 192225Z 19010KT 25/M04 A2983 RMK A01 T02461038  RH  015%=      5-min Rain = 0
KSM1 192230Z 20009KT 25/M04 A2983 RMK A01 T02461038  RH  015%=      5-min Rain = 0
KSM1 192235Z 19008KT 25/M04 A2983 RMK A01 T02451036  RH  015%=      5-min Rain = 0
KSM1 192240Z 19010KT 24/M04 A2983 RMK A01 T02431037  RH  015%=      5-min Rain = 0
KSM1 192245Z 19011KT 24/M04 A2983 RMK A01 T02391038  RH  016%=      5-min Rain = 0
KSM1 192250Z 19009KT 24/M04 A2983 RMK A01 T02371036  RH  016%=      5-min Rain = 0
KSM1 192255Z 19008KT 24/M04 A2983 RMK A01 T02351036  RH  016%=      5-min Rain = 0
KSM1 192300Z 19007KT 23/M04 A2983 RMK A01 T02321035  RH  017%=      5-min Rain = 0
KSM1 192305Z 20007KT 23/M03 A2983 RMK A01 T02281033  RH  017%=      5-min Rain = 0
KSM1 192310Z 19006KT 22/M03 A2983 RMK A01 T02241031  RH  018%=      5-min Rain = 0
KSM1 192315Z 19006KT 22/M03 A2983 RMK A01 T02201030  RH  019%=      5-min Rain = 0
KSM1 192320Z 19006KT 22/M03 A2983 RMK A01 T02151028  RH  020%=      5-min Rain = 0
KSM1 192325Z 18006KT 21/M03 A2983 RMK A01 T02101026  RH  020%=      5-min Rain = 0
KSM1 192330Z 18006KT 21/M02 A2983 RMK A01 T02061024  RH  021%=      5-min Rain = 0
KSM1 192335Z 18005KT 20/M02 A2983 RMK A01 T02021024  RH  022%=      5-min Rain = 0
KSM1 192340Z 17005KT 20/M02 A2983 RMK A01 T01981023  RH  022%=      5-min Rain = 0
KSM1 192345Z 17005KT 19/M02 A2983 RMK A01 T01941022  RH  023%=      5-min Rain = 0
KSM1 192350Z 17005KT 19/M02 A2983 RMK A01 T01901021  RH  024%=      5-min Rain = 0
KSM1 192355Z 17006KT 19/M02 A2983 RMK A01 T01851020  RH  025%=      5-min Rain = 0
KSM1 200000Z 18007KT 18/M02 A2983 RMK A01 T01781017  RH  027%=      5-min Rain = 0
KSM1 200005Z 18007KT 18/M02 A2983 RMK A01 T01751015  RH  028%=      5-min Rain = 0
KSM1 200010Z 18008KT 18/M02 A2983 RMK A01 T01791018  RH  026%=      5-min Rain = 0
KSM1 200015Z 18007KT 19/M02 A2983 RMK A01 T01861020  RH  025%=      5-min Rain = 0
KSM1 200020Z 18007KT 18/M02 A2983 RMK A01 T01841018  RH  026%=      5-min Rain = 0
KSM1 200025Z 19007KT 18/M02 A2983 RMK A01 T01831020  RH  025%=      5-min Rain = 0
KSM1 200030Z 19006KT 18/M02 A2983 RMK A01 T01811020  RH  026%=      5-min Rain = 0
KSM1 200035Z 18006KT 18/M02 A2983 RMK A01 T01771018  RH  027%=      5-min Rain = 0
KSM1 200040Z 18005KT 17/M02 A2983 RMK A01 T01731015  RH  028%=      5-min Rain = 0
KSM1 200045Z 17005KT 17/M01 A2983 RMK A01 T01681013  RH  029%=      5-min Rain = 0
KSM1 200050Z 17005KT 16/M01 A2983 RMK A01 T01631013  RH  030%=      5-min Rain = 0
KSM1 200055Z 16006KT 16/M01 A2984 RMK A01 T01591011  RH  032%=      5-min Rain = 0
KSM1 200100Z 16007KT 16/M01 A2984 RMK A01 T01551011  RH  032%=      5-min Rain = 0
KSM1 200105Z 17006KT 15/M01 A2984 RMK A01 T01541009  RH  033%=      5-min Rain = 0
KSM1 200110Z 18006KT 15/M01 A2984 RMK A01 T01511007  RH  034%=      5-min Rain = 0
KSM1 200115Z 18006KT 15/M01 A2984 RMK A01 T01521007  RH  034%=      5-min Rain = 0
KSM1 200120Z 18007KT 16/M01 A2984 RMK A01 T01551009  RH  033%=      5-min Rain = 0
KSM1 200125Z 18008KT 17/M02 A2984 RMK A01 T01661015  RH  029%=      5-min Rain = 0
KSM1 200130Z 18009KT 17/M02 A2984 RMK A01 T01731017  RH  028%=      5-min Rain = 0
KSM1 200135Z 18009KT 18/M02 A2984 RMK A01 T01751017  RH  027%=      5-min Rain = 0
KSM1 200140Z 18008KT 17/M02 A2984 RMK A01 T01731016  RH  028%=      5-min Rain = 0
KSM1 200145Z 18008KT 17/M01 A2984 RMK A01 T01701014  RH  029%=      5-min Rain = 0
KSM1 200150Z 18009KT 17/M01 A2984 RMK A01 T01681014  RH  029%=      5-min Rain = 0
KSM1 200155Z 18010KT 17/M01 A2984 RMK A01 T01701013  RH  029%=      5-min Rain = 0
KSM1 200200Z 18009KT 17/M01 A2984 RMK A01 T01681012  RH  030%=      5-min Rain = 0
KSM1 200205Z 18009KT 17/M01 A2984 RMK A01 T01661011  RH  030%=      5-min Rain = 0
KSM1 200210Z 18009KT 16/M01 A2984 RMK A01 T01641011  RH  030%=      5-min Rain = 0
KSM1 200215Z 18008KT 16/M01 A2984 RMK A01 T01601010  RH  031%=      5-min Rain = 0
KSM1 200220Z 17008KT 16/M01 A2984 RMK A01 T01561009  RH  033%=      5-min Rain = 0
KSM1 200225Z 18007KT 15/M01 A2984 RMK A01 T01511007  RH  034%=      5-min Rain = 0
KSM1 200230Z 17007KT 15/M00 A2985 RMK A01 T01461004  RH  036%=      5-min Rain = 0
KSM1 200235Z 18007KT 14/M00 A2985 RMK A01 T01431003  RH  037%=      5-min Rain = 0
KSM1 200240Z 18007KT 14/M00 A2985 RMK A01 T01421003  RH  037%=      5-min Rain = 0
KSM1 200245Z 18007KT 15/M00 A2985 RMK A01 T01451004  RH  036%=      5-min Rain = 0
KSM1 200250Z 18007KT 15/M00 A2985 RMK A01 T01491003  RH  036%=      5-min Rain = 0
KSM1 200255Z 18010KT 15/00 A2985 RMK A01 T01540001  RH  036%=      5-min Rain = 0
KSM1 200300Z 18010G15KT 16/01 A2985 RMK A01 T01590007  RH  036%=      5-min Rain = 0
KSM1 200305Z 18011KT 16/01 A2985 RMK A01 T01590013  RH  038%=      5-min Rain = 0
KSM1 200310Z 18011KT 16/02 A2985 RMK A01 T01590017  RH  039%=      5-min Rain = 0
KSM1 200315Z 18011KT 16/02 A2985 RMK A01 T01580019  RH  040%=      5-min Rain = 0
KSM1 200320Z 18011KT 16/02 A2985 RMK A01 T01580022  RH  041%=      5-min Rain = 0
KSM1 200325Z 18011KT 16/03 A2985 RMK A01 T01570025  RH  042%=      5-min Rain = 0
KSM1 200330Z 18012KT 16/03 A2985 RMK A01 T01600028  RH  042%=      5-min Rain = 0
KSM1 200335Z 18012KT 16/03 A2985 RMK A01 T01610030  RH  042%=      5-min Rain = 0
KSM1 200340Z 19011KT 16/03 A2985 RMK A01 T01600031  RH  043%=      5-min Rain = 0
KSM1 200345Z 18011KT 16/03 A2985 RMK A01 T01580031  RH  043%=      5-min Rain = 0
KSM1 200350Z 18010KT 16/03 A2985 RMK A01 T01560032  RH  044%=      5-min Rain = 0
KSM1 200355Z 18010KT 15/03 A2985 RMK A01 T01540034  RH  046%=      5-min Rain = 0
KSM1 200400Z 18010KT 15/04 A2985 RMK A01 T01520036  RH  047%=      5-min Rain = 0
KSM1 200405Z 18011KT 15/04 A2985 RMK A01 T01500037  RH  048%=      5-min Rain = 0
KSM1 200410Z 18012KT 15/04 A2985 RMK A01 T01490039  RH  048%=      5-min Rain = 0
KSM1 200415Z 18012KT 15/04 A2985 RMK A01 T01490041  RH  049%=      5-min Rain = 0
KSM1 200420Z 18012KT 15/04 A2986 RMK A01 T01490043  RH  050%=      5-min Rain = 0
KSM1 200425Z 18012KT 15/05 A2985 RMK A01 T01500046  RH  051%=      5-min Rain = 0
KSM1 200430Z 18011KT 15/05 A2985 RMK A01 T01500048  RH  052%=      5-min Rain = 0
KSM1 200435Z 18011KT 15/05 A2985 RMK A01 T01500050  RH  052%=      5-min Rain = 0
KSM1 200440Z 18011KT 15/05 A2985 RMK A01 T01510051  RH  053%=      5-min Rain = 0
KSM1 200445Z 19011KT 15/05 A2985 RMK A01 T01510053  RH  053%=      5-min Rain = 0
KSM1 200450Z 19011KT 15/05 A2986 RMK A01 T01520054  RH  053%=      5-min Rain = 0
KSM1 200455Z 19011KT 15/06 A2986 RMK A01 T01530056  RH  053%=      5-min Rain = 0
KSM1 200500Z 19010KT 15/06 A2986 RMK A01 T01540057  RH  054%=      5-min Rain = 0
KSM1 200505Z 19013KT 16/06 A2986 RMK A01 T01560060  RH  054%=      5-min Rain = 0
KSM1 200510Z 19014G19KT 16/06 A2986 RMK A01 T01570062  RH  054%=      5-min Rain = 0
KSM1 200515Z 19013G18KT 16/06 A2986 RMK A01 T01580064  RH  055%=      5-min Rain = 0
KSM1 200520Z 19012G18KT 16/07 A2986 RMK A01 T01580065  RH  056%=      5-min Rain = 0
KSM1 200525Z 18014KT 16/07 A2986 RMK A01 T01580067  RH  056%=      5-min Rain = 0
KSM1 200530Z 18013KT 16/07 A2986 RMK A01 T01580069  RH  057%=      5-min Rain = 0
KSM1 200535Z 18013KT 16/07 A2986 RMK A01 T01570070  RH  058%=      5-min Rain = 0
KSM1 200540Z 19013KT 16/07 A2986 RMK A01 T01580072  RH  058%=      5-min Rain = 0
KSM1 200545Z 18012KT 16/07 A2985 RMK A01 T01570073  RH  059%=      5-min Rain = 0
KSM1 200550Z 18012G18KT 16/08 A2985 RMK A01 T01570075  RH  060%=      5-min Rain = 0
KSM1 200555Z 18012KT 16/08 A2985 RMK A01 T01560076  RH  061%=      5-min Rain = 0

Page generated in 0.0089 seconds.